sensor_id;sensor_type;location;lat;lon;timestamp;P1;durP1;ratioP1;P2;durP2;ratioP2
64597;SDS011;51004;54.692;9.332;2022-11-25T07:49:24;19.40;;;10.77;;
64597;SDS011;51004;54.692;9.332;2022-11-25T07:51:51;17.83;;;10.27;;
64597;SDS011;51004;54.692;9.332;2022-11-25T07:54:17;18.63;;;10.48;;
64597;SDS011;51004;54.692;9.332;2022-11-25T07:56:43;16.92;;;9.52;;
64597;SDS011;51004;54.692;9.332;2022-11-25T08:20:42;17.40;;;9.98;;
64597;SDS011;51004;54.692;9.332;2022-11-25T08:23:08;14.65;;;9.95;;
64597;SDS011;51004;54.692;9.332;2022-11-25T08:25:38;19.20;;;11.68;;
64597;SDS011;51004;54.692;9.332;2022-11-25T08:28:06;17.33;;;10.95;;
64597;SDS011;51004;54.692;9.332;2022-11-25T08:30:32;17.33;;;10.50;;
64597;SDS011;51004;54.692;9.332;2022-11-25T08:32:59;16.33;;;10.40;;
64597;SDS011;51004;54.692;9.332;2022-11-25T08:35:25;16.35;;;9.77;;
64597;SDS011;51004;54.692;9.332;2022-11-25T08:37:51;17.98;;;9.93;;
64597;SDS011;51004;54.692;9.332;2022-11-25T08:40:17;21.00;;;9.85;;
64597;SDS011;51004;54.692;9.332;2022-11-25T08:42:48;22.88;;;11.02;;
64597;SDS011;51004;54.692;9.332;2022-11-25T08:45:17;17.10;;;9.48;;
64597;SDS011;51004;54.692;9.332;2022-11-25T08:47:43;18.60;;;10.18;;
64597;SDS011;51004;54.692;9.332;2022-11-25T08:50:09;17.92;;;10.07;;
64597;SDS011;51004;54.692;9.332;2022-11-25T08:52:35;17.95;;;10.57;;
64597;SDS011;51004;54.692;9.332;2022-11-25T08:55:01;24.55;;;10.35;;
64597;SDS011;51004;54.692;9.332;2022-11-25T08:57:27;18.08;;;11.07;;
64597;SDS011;51004;54.692;9.332;2022-11-25T08:59:53;18.88;;;9.90;;
64597;SDS011;51004;54.692;9.332;2022-11-25T09:02:19;16.65;;;10.02;;
64597;SDS011;51004;54.692;9.332;2022-11-25T09:04:48;22.38;;;10.30;;
64597;SDS011;51004;54.692;9.332;2022-11-25T09:07:17;17.13;;;9.88;;
64597;SDS011;51004;54.692;9.332;2022-11-25T09:09:43;19.40;;;10.23;;
64597;SDS011;51004;54.692;9.332;2022-11-25T09:12:12;17.75;;;9.45;;
64597;SDS011;51004;54.692;9.332;2022-11-25T09:14:48;17.15;;;10.00;;
64597;SDS011;51004;54.692;9.332;2022-11-25T09:17:17;20.02;;;9.93;;
64597;SDS011;51004;54.692;9.332;2022-11-25T09:19:45;16.73;;;9.50;;
64597;SDS011;51004;54.692;9.332;2022-11-25T09:22:11;20.20;;;10.38;;
64597;SDS011;51004;54.692;9.332;2022-11-25T09:24:45;18.80;;;9.70;;
64597;SDS011;51004;54.692;9.332;2022-11-25T09:27:11;18.00;;;9.05;;
64597;SDS011;51004;54.692;9.332;2022-11-25T09:29:37;17.02;;;8.88;;
64597;SDS011;51004;54.692;9.332;2022-11-25T09:32:03;19.85;;;9.40;;
64597;SDS011;51004;54.692;9.332;2022-11-25T09:34:29;19.17;;;8.85;;
64597;SDS011;51004;54.692;9.332;2022-11-25T09:36:55;20.60;;;8.95;;
64597;SDS011;51004;54.692;9.332;2022-11-25T09:39:21;18.58;;;8.60;;
64597;SDS011;51004;54.692;9.332;2022-11-25T09:47:49;19.42;;;9.20;;
64597;SDS011;51004;54.692;9.332;2022-11-25T10:00:38;20.13;;;10.13;;
64597;SDS011;51004;54.692;9.332;2022-11-25T10:03:16;22.25;;;8.80;;
64597;SDS011;51004;54.692;9.332;2022-11-25T10:05:45;19.83;;;8.93;;
64597;SDS011;51004;54.692;9.332;2022-11-25T10:08:19;18.33;;;9.88;;
64597;SDS011;51004;54.692;9.332;2022-11-25T10:10:49;19.33;;;9.23;;
64597;SDS011;51004;54.692;9.332;2022-11-25T10:13:18;23.15;;;9.65;;
64597;SDS011;51004;54.692;9.332;2022-11-25T10:15:45;17.70;;;9.82;;
64597;SDS011;51004;54.692;9.332;2022-11-25T10:18:18;18.90;;;8.70;;
64597;SDS011;51004;54.692;9.332;2022-11-25T10:20:46;19.30;;;8.98;;
64597;SDS011;51004;54.692;9.332;2022-11-25T10:23:18;16.23;;;9.45;;
64597;SDS011;51004;54.692;9.332;2022-11-25T10:25:45;18.67;;;9.27;;
64597;SDS011;51004;54.692;9.332;2022-11-25T10:28:17;18.20;;;9.40;;
64597;SDS011;51004;54.692;9.332;2022-11-25T10:30:44;17.40;;;9.07;;
64597;SDS011;51004;54.692;9.332;2022-11-25T10:33:14;15.90;;;9.45;;
64597;SDS011;51004;54.692;9.332;2022-11-25T10:35:43;16.73;;;8.95;;
64597;SDS011;51004;54.692;9.332;2022-11-25T10:38:11;21.23;;;8.95;;
64597;SDS011;51004;54.692;9.332;2022-11-25T10:40:38;17.73;;;9.52;;
64597;SDS011;51004;54.692;9.332;2022-11-25T10:43:09;21.05;;;9.10;;
64597;SDS011;51004;54.692;9.332;2022-11-25T10:45:38;21.02;;;9.27;;
64597;SDS011;51004;54.692;9.332;2022-11-25T10:48:22;21.05;;;9.05;;
64597;SDS011;51004;54.692;9.332;2022-11-25T10:51:00;20.60;;;9.90;;
64597;SDS011;51004;54.692;9.332;2022-11-25T10:53:27;18.17;;;9.68;;
64597;SDS011;51004;54.692;9.332;2022-11-25T10:56:01;17.05;;;8.80;;
64597;SDS011;51004;54.692;9.332;2022-11-25T10:58:30;17.13;;;9.20;;
64597;SDS011;51004;54.692;9.332;2022-11-25T11:03:34;26.55;;;10.30;;
64597;SDS011;51004;54.692;9.332;2022-11-25T11:06:00;18.40;;;10.77;;
64597;SDS011;51004;54.692;9.332;2022-11-25T11:08:44;17.52;;;9.10;;
64597;SDS011;51004;54.692;9.332;2022-11-25T11:13:43;18.67;;;9.70;;
64597;SDS011;51004;54.692;9.332;2022-11-25T11:18:54;20.55;;;9.90;;
64597;SDS011;51004;54.692;9.332;2022-11-25T11:21:22;20.52;;;9.90;;
64597;SDS011;51004;54.692;9.332;2022-11-25T11:23:52;14.45;;;8.95;;
64597;SDS011;51004;54.692;9.332;2022-11-25T11:29:04;18.48;;;9.27;;
64597;SDS011;51004;54.692;9.332;2022-11-25T11:31:34;19.95;;;10.05;;
64597;SDS011;51004;54.692;9.332;2022-11-25T11:36:45;18.48;;;8.93;;
64597;SDS011;51004;54.692;9.332;2022-11-25T11:39:24;17.05;;;9.52;;
64597;SDS011;51004;54.692;9.332;2022-11-25T11:41:54;20.30;;;9.68;;
64597;SDS011;51004;54.692;9.332;2022-11-25T11:47:11;16.88;;;10.10;;
64597;SDS011;51004;54.692;9.332;2022-11-25T11:53:14;14.45;;;9.23;;
64597;SDS011;51004;54.692;9.332;2022-11-25T11:55:27;17.67;;;9.27;;
64597;SDS011;51004;54.692;9.332;2022-11-25T11:58:07;15.15;;;9.13;;
64597;SDS011;51004;54.692;9.332;2022-11-25T12:00:48;19.75;;;9.70;;
64597;SDS011;51004;54.692;9.332;2022-11-25T12:03:17;17.40;;;9.77;;
64597;SDS011;51004;54.692;9.332;2022-11-25T12:05:46;20.58;;;9.88;;
64597;SDS011;51004;54.692;9.332;2022-11-25T12:08:13;18.05;;;10.80;;
64597;SDS011;51004;54.692;9.332;2022-11-25T12:10:46;19.98;;;10.75;;
64597;SDS011;51004;54.692;9.332;2022-11-25T12:13:34;16.60;;;10.40;;
64597;SDS011;51004;54.692;9.332;2022-11-25T12:16:12;17.00;;;10.68;;
64597;SDS011;51004;54.692;9.332;2022-11-25T12:18:46;20.92;;;10.90;;
64597;SDS011;51004;54.692;9.332;2022-11-25T12:29:11;22.50;;;11.68;;
64597;SDS011;51004;54.692;9.332;2022-11-25T12:31:39;26.42;;;12.35;;
64597;SDS011;51004;54.692;9.332;2022-11-25T12:34:08;21.77;;;11.65;;
64597;SDS011;51004;54.692;9.332;2022-11-25T12:36:36;26.20;;;12.57;;
64597;SDS011;51004;54.692;9.332;2022-11-25T12:41:41;25.42;;;13.30;;
64597;SDS011;51004;54.692;9.332;2022-11-25T12:44:16;26.55;;;12.43;;
64597;SDS011;51004;54.692;9.332;2022-11-25T12:46:45;26.05;;;13.00;;
64597;SDS011;51004;54.692;9.332;2022-11-25T12:49:27;23.95;;;13.15;;
64597;SDS011;51004;54.692;9.332;2022-11-25T12:52:10;26.23;;;13.77;;
64597;SDS011;51004;54.692;9.332;2022-11-25T12:54:48;25.35;;;14.27;;
64597;SDS011;51004;54.692;9.332;2022-11-25T13:00:08;28.70;;;15.57;;
64597;SDS011;51004;54.692;9.332;2022-11-25T13:05:12;24.80;;;14.18;;
64597;SDS011;51004;54.692;9.332;2022-11-25T13:16:00;24.90;;;14.48;;
64597;SDS011;51004;54.692;9.332;2022-11-25T13:18:22;34.97;;;15.63;;
64597;SDS011;51004;54.692;9.332;2022-11-25T13:20:51;28.40;;;16.02;;
64597;SDS011;51004;54.692;9.332;2022-11-25T13:25:45;32.97;;;17.52;;
64597;SDS011;51004;54.692;9.332;2022-11-25T13:31:53;38.67;;;16.60;;
64597;SDS011;51004;54.692;9.332;2022-11-25T13:36:16;35.83;;;17.48;;
64597;SDS011;51004;54.692;9.332;2022-11-25T13:43:50;36.33;;;18.77;;
64597;SDS011;51004;54.692;9.332;2022-11-25T13:46:26;45.72;;;18.65;;
64597;SDS011;51004;54.692;9.332;2022-11-25T13:48:54;42.05;;;18.00;;
64597;SDS011;51004;54.692;9.332;2022-11-25T13:51:21;33.83;;;16.70;;
64597;SDS011;51004;54.692;9.332;2022-11-25T13:53:50;34.85;;;19.25;;
64597;SDS011;51004;54.692;9.332;2022-11-25T13:56:31;39.67;;;16.45;;
64597;SDS011;51004;54.692;9.332;2022-11-25T14:04:04;41.17;;;18.50;;
64597;SDS011;51004;54.692;9.332;2022-11-25T14:09:08;37.92;;;17.73;;
64597;SDS011;51004;54.692;9.332;2022-11-25T14:11:39;49.05;;;19.08;;
64597;SDS011;51004;54.692;9.332;2022-11-25T14:22:02;40.38;;;20.00;;
64597;SDS011;51004;54.692;9.332;2022-11-25T14:27:10;43.60;;;19.50;;
64597;SDS011;51004;54.692;9.332;2022-11-25T14:29:39;58.72;;;20.58;;
64597;SDS011;51004;54.692;9.332;2022-11-25T14:32:27;50.92;;;19.55;;
64597;SDS011;51004;54.692;9.332;2022-11-25T14:37:38;49.53;;;20.10;;
64597;SDS011;51004;54.692;9.332;2022-11-25T14:40:07;45.95;;;20.95;;
64597;SDS011;51004;54.692;9.332;2022-11-25T14:42:34;54.97;;;20.35;;
64597;SDS011;51004;54.692;9.332;2022-11-25T14:45:01;51.40;;;20.83;;
64597;SDS011;51004;54.692;9.332;2022-11-25T14:47:39;57.30;;;20.67;;
64597;SDS011;51004;54.692;9.332;2022-11-25T14:50:05;54.55;;;20.45;;
64597;SDS011;51004;54.692;9.332;2022-11-25T14:52:37;50.23;;;20.10;;
64597;SDS011;51004;54.692;9.332;2022-11-25T14:55:07;54.33;;;19.90;;
64597;SDS011;51004;54.692;9.332;2022-11-25T14:57:35;46.70;;;19.15;;
64597;SDS011;51004;54.692;9.332;2022-11-25T15:00:04;43.90;;;19.65;;
64597;SDS011;51004;54.692;9.332;2022-11-25T15:02:33;48.92;;;19.85;;
64597;SDS011;51004;54.692;9.332;2022-11-25T15:05:19;54.17;;;21.98;;
64597;SDS011;51004;54.692;9.332;2022-11-25T15:13:08;46.63;;;21.67;;
64597;SDS011;51004;54.692;9.332;2022-11-25T15:15:36;49.72;;;20.00;;
64597;SDS011;51004;54.692;9.332;2022-11-25T15:18:03;47.17;;;21.33;;
64597;SDS011;51004;54.692;9.332;2022-11-25T15:20:31;38.42;;;20.80;;
64597;SDS011;51004;54.692;9.332;2022-11-25T15:22:59;42.10;;;20.20;;
64597;SDS011;51004;54.692;9.332;2022-11-25T15:25:25;47.00;;;20.75;;
64597;SDS011;51004;54.692;9.332;2022-11-25T15:27:51;43.30;;;22.15;;
64597;SDS011;51004;54.692;9.332;2022-11-25T15:30:21;47.17;;;20.92;;
64597;SDS011;51004;54.692;9.332;2022-11-25T15:32:48;42.92;;;20.40;;
64597;SDS011;51004;54.692;9.332;2022-11-25T15:35:16;44.28;;;20.55;;
64597;SDS011;51004;54.692;9.332;2022-11-25T15:37:42;44.65;;;20.42;;
64597;SDS011;51004;54.692;9.332;2022-11-25T15:43:20;48.47;;;19.73;;
64597;SDS011;51004;54.692;9.332;2022-11-25T15:48:36;46.90;;;20.40;;
64597;SDS011;51004;54.692;9.332;2022-11-25T15:51:03;40.17;;;20.85;;
64597;SDS011;51004;54.692;9.332;2022-11-25T15:53:30;41.67;;;21.05;;
64597;SDS011;51004;54.692;9.332;2022-11-25T15:56:00;44.53;;;21.25;;
64597;SDS011;51004;54.692;9.332;2022-11-25T15:58:27;49.28;;;21.33;;
64597;SDS011;51004;54.692;9.332;2022-11-25T16:01:00;43.20;;;22.35;;
64597;SDS011;51004;54.692;9.332;2022-11-25T16:03:26;55.95;;;25.15;;
64597;SDS011;51004;54.692;9.332;2022-11-25T16:05:55;49.50;;;23.35;;
64597;SDS011;51004;54.692;9.332;2022-11-25T16:08:31;48.00;;;23.10;;
64597;SDS011;51004;54.692;9.332;2022-11-25T16:11:08;46.85;;;21.90;;
64597;SDS011;51004;54.692;9.332;2022-11-25T16:13:35;50.08;;;23.23;;
64597;SDS011;51004;54.692;9.332;2022-11-25T16:16:18;53.65;;;24.45;;
64597;SDS011;51004;54.692;9.332;2022-11-25T16:18:53;51.67;;;24.10;;
64597;SDS011;51004;54.692;9.332;2022-11-25T16:21:24;49.40;;;23.58;;
64597;SDS011;51004;54.692;9.332;2022-11-25T16:23:51;53.97;;;23.63;;
64597;SDS011;51004;54.692;9.332;2022-11-25T16:26:23;53.38;;;23.83;;
64597;SDS011;51004;54.692;9.332;2022-11-25T16:28:51;55.47;;;25.33;;
64597;SDS011;51004;54.692;9.332;2022-11-25T16:31:17;59.78;;;25.88;;
64597;SDS011;51004;54.692;9.332;2022-11-25T16:33:43;53.13;;;26.02;;
64597;SDS011;51004;54.692;9.332;2022-11-25T16:36:09;49.20;;;25.52;;
64597;SDS011;51004;54.692;9.332;2022-11-25T16:38:35;49.38;;;25.60;;
64597;SDS011;51004;54.692;9.332;2022-11-25T16:41:14;52.53;;;26.25;;
64597;SDS011;51004;54.692;9.332;2022-11-25T16:43:43;53.72;;;24.98;;
64597;SDS011;51004;54.692;9.332;2022-11-25T16:46:09;55.50;;;27.15;;
64597;SDS011;51004;54.692;9.332;2022-11-25T16:48:37;51.78;;;25.88;;
64597;SDS011;51004;54.692;9.332;2022-11-25T16:51:06;61.25;;;26.63;;
64597;SDS011;51004;54.692;9.332;2022-11-25T16:53:33;58.47;;;26.42;;
64597;SDS011;51004;54.692;9.332;2022-11-25T16:55:59;55.33;;;26.23;;
64597;SDS011;51004;54.692;9.332;2022-11-25T16:58:27;59.42;;;26.67;;
64597;SDS011;51004;54.692;9.332;2022-11-25T17:00:53;58.30;;;30.17;;
64597;SDS011;51004;54.692;9.332;2022-11-25T17:03:20;68.07;;;30.35;;
64597;SDS011;51004;54.692;9.332;2022-11-25T17:05:49;58.30;;;28.30;;
64597;SDS011;51004;54.692;9.332;2022-11-25T17:08:15;63.63;;;28.45;;
64597;SDS011;51004;54.692;9.332;2022-11-25T17:10:43;59.45;;;28.38;;
64597;SDS011;51004;54.692;9.332;2022-11-25T17:13:20;63.20;;;28.98;;
64597;SDS011;51004;54.692;9.332;2022-11-25T17:16:14;62.78;;;27.60;;
64597;SDS011;51004;54.692;9.332;2022-11-25T17:18:41;67.35;;;27.38;;
64597;SDS011;51004;54.692;9.332;2022-11-25T17:21:11;68.75;;;28.95;;
64597;SDS011;51004;54.692;9.332;2022-11-25T17:23:38;59.80;;;29.55;;
64597;SDS011;51004;54.692;9.332;2022-11-25T17:26:04;71.43;;;29.85;;
64597;SDS011;51004;54.692;9.332;2022-11-25T17:28:31;74.28;;;30.42;;
64597;SDS011;51004;54.692;9.332;2022-11-25T17:30:59;60.13;;;30.23;;
64597;SDS011;51004;54.692;9.332;2022-11-25T17:33:27;66.55;;;29.92;;
64597;SDS011;51004;54.692;9.332;2022-11-25T17:35:53;66.78;;;29.83;;
64597;SDS011;51004;54.692;9.332;2022-11-25T17:38:22;71.00;;;29.25;;
64597;SDS011;51004;54.692;9.332;2022-11-25T17:40:48;61.42;;;30.23;;
64597;SDS011;51004;54.692;9.332;2022-11-25T17:43:15;65.75;;;30.38;;
64597;SDS011;51004;54.692;9.332;2022-11-25T17:45:41;65.18;;;28.52;;
64597;SDS011;51004;54.692;9.332;2022-11-25T17:48:11;65.47;;;30.80;;
64597;SDS011;51004;54.692;9.332;2022-11-25T17:50:37;72.72;;;31.70;;
64597;SDS011;51004;54.692;9.332;2022-11-25T17:53:04;72.72;;;29.60;;
64597;SDS011;51004;54.692;9.332;2022-11-25T17:55:30;65.63;;;31.50;;
64597;SDS011;51004;54.692;9.332;2022-11-25T17:57:56;75.32;;;32.25;;
64597;SDS011;51004;54.692;9.332;2022-11-25T18:00:22;75.13;;;33.17;;
64597;SDS011;51004;54.692;9.332;2022-11-25T18:02:48;71.30;;;30.35;;
64597;SDS011;51004;54.692;9.332;2022-11-25T18:05:16;69.03;;;30.95;;
64597;SDS011;51004;54.692;9.332;2022-11-25T18:07:44;64.00;;;31.48;;
64597;SDS011;51004;54.692;9.332;2022-11-25T18:10:10;73.95;;;30.35;;
64597;SDS011;51004;54.692;9.332;2022-11-25T18:12:37;77.93;;;30.35;;
64597;SDS011;51004;54.692;9.332;2022-11-25T18:15:03;57.83;;;29.17;;
64597;SDS011;51004;54.692;9.332;2022-11-25T18:17:34;75.90;;;31.17;;
64597;SDS011;51004;54.692;9.332;2022-11-25T18:20:04;63.38;;;29.10;;
64597;SDS011;51004;54.692;9.332;2022-11-25T18:22:38;62.33;;;30.35;;
64597;SDS011;51004;54.692;9.332;2022-11-25T18:25:04;59.20;;;28.33;;
64597;SDS011;51004;54.692;9.332;2022-11-25T18:27:30;68.10;;;28.55;;
64597;SDS011;51004;54.692;9.332;2022-11-25T18:29:56;57.28;;;28.65;;
64597;SDS011;51004;54.692;9.332;2022-11-25T18:32:23;57.80;;;28.70;;
64597;SDS011;51004;54.692;9.332;2022-11-25T18:34:49;65.60;;;28.80;;
64597;SDS011;51004;54.692;9.332;2022-11-25T18:37:15;68.78;;;30.15;;
64597;SDS011;51004;54.692;9.332;2022-11-25T18:39:41;69.00;;;29.48;;
64597;SDS011;51004;54.692;9.332;2022-11-25T18:42:13;72.22;;;31.48;;
64597;SDS011;51004;54.692;9.332;2022-11-25T18:44:42;63.78;;;28.55;;
64597;SDS011;51004;54.692;9.332;2022-11-25T18:47:09;64.28;;;28.65;;
64597;SDS011;51004;54.692;9.332;2022-11-25T18:49:36;86.05;;;30.92;;
64597;SDS011;51004;54.692;9.332;2022-11-25T18:52:02;66.80;;;31.45;;
64597;SDS011;51004;54.692;9.332;2022-11-25T18:54:27;54.85;;;28.55;;
64597;SDS011;51004;54.692;9.332;2022-11-25T18:56:53;66.28;;;29.80;;
64597;SDS011;51004;54.692;9.332;2022-11-25T18:59:32;57.47;;;30.08;;
64597;SDS011;51004;54.692;9.332;2022-11-25T19:01:58;67.43;;;31.77;;
64597;SDS011;51004;54.692;9.332;2022-11-25T19:04:25;64.05;;;30.58;;
64597;SDS011;51004;54.692;9.332;2022-11-25T19:06:51;69.15;;;29.02;;
64597;SDS011;51004;54.692;9.332;2022-11-25T19:09:17;74.35;;;31.23;;
64597;SDS011;51004;54.692;9.332;2022-11-25T19:11:48;60.25;;;29.23;;
64597;SDS011;51004;54.692;9.332;2022-11-25T19:14:18;64.47;;;29.08;;
64597;SDS011;51004;54.692;9.332;2022-11-25T19:16:50;58.25;;;27.42;;
64597;SDS011;51004;54.692;9.332;2022-11-25T19:19:15;62.47;;;27.90;;
64597;SDS011;51004;54.692;9.332;2022-11-25T19:21:41;63.53;;;28.48;;
64597;SDS011;51004;54.692;9.332;2022-11-25T19:24:14;68.68;;;27.33;;
64597;SDS011;51004;54.692;9.332;2022-11-25T19:26:42;56.13;;;28.65;;
64597;SDS011;51004;54.692;9.332;2022-11-25T19:29:09;60.00;;;28.02;;
64597;SDS011;51004;54.692;9.332;2022-11-25T19:31:37;62.28;;;26.58;;
64597;SDS011;51004;54.692;9.332;2022-11-25T19:34:03;65.20;;;27.05;;
64597;SDS011;51004;54.692;9.332;2022-11-25T19:36:29;63.22;;;27.48;;
64597;SDS011;51004;54.692;9.332;2022-11-25T19:38:56;78.05;;;33.65;;
64597;SDS011;51004;54.692;9.332;2022-11-25T19:41:22;63.28;;;28.75;;
64597;SDS011;51004;54.692;9.332;2022-11-25T19:43:48;66.38;;;28.98;;
64597;SDS011;51004;54.692;9.332;2022-11-25T19:46:27;68.00;;;31.10;;
64597;SDS011;51004;54.692;9.332;2022-11-25T19:48:54;68.80;;;33.97;;
64597;SDS011;51004;54.692;9.332;2022-11-25T19:51:22;69.72;;;37.45;;
64597;SDS011;51004;54.692;9.332;2022-11-25T19:53:48;62.67;;;30.38;;
64597;SDS011;51004;54.692;9.332;2022-11-25T19:56:17;73.05;;;33.67;;
64597;SDS011;51004;54.692;9.332;2022-11-25T19:58:46;72.63;;;31.83;;
64597;SDS011;51004;54.692;9.332;2022-11-25T20:01:13;54.00;;;29.92;;
64597;SDS011;51004;54.692;9.332;2022-11-25T20:03:39;58.38;;;27.65;;
64597;SDS011;51004;54.692;9.332;2022-11-25T20:06:09;64.47;;;28.27;;
64597;SDS011;51004;54.692;9.332;2022-11-25T20:08:35;61.00;;;27.88;;
64597;SDS011;51004;54.692;9.332;2022-11-25T20:11:02;58.75;;;27.88;;
64597;SDS011;51004;54.692;9.332;2022-11-25T20:13:28;73.38;;;27.10;;
64597;SDS011;51004;54.692;9.332;2022-11-25T20:15:56;65.85;;;28.38;;
64597;SDS011;51004;54.692;9.332;2022-11-25T20:18:22;61.13;;;28.70;;
64597;SDS011;51004;54.692;9.332;2022-11-25T20:23:50;54.22;;;26.30;;
64597;SDS011;51004;54.692;9.332;2022-11-25T20:26:27;52.50;;;26.45;;
64597;SDS011;51004;54.692;9.332;2022-11-25T20:28:54;52.60;;;25.15;;
64597;SDS011;51004;54.692;9.332;2022-11-25T20:31:24;57.63;;;23.75;;
64597;SDS011;51004;54.692;9.332;2022-11-25T20:33:53;44.88;;;23.15;;
64597;SDS011;51004;54.692;9.332;2022-11-25T20:36:21;55.28;;;22.67;;
64597;SDS011;51004;54.692;9.332;2022-11-25T20:38:48;52.67;;;23.17;;
64597;SDS011;51004;54.692;9.332;2022-11-25T20:41:15;40.85;;;21.63;;
64597;SDS011;51004;54.692;9.332;2022-11-25T20:43:42;43.45;;;23.45;;
64597;SDS011;51004;54.692;9.332;2022-11-25T20:46:16;42.83;;;24.25;;
64597;SDS011;51004;54.692;9.332;2022-11-25T20:48:43;47.83;;;27.80;;
64597;SDS011;51004;54.692;9.332;2022-11-25T20:51:16;47.70;;;24.17;;
64597;SDS011;51004;54.692;9.332;2022-11-25T20:53:51;48.75;;;25.70;;
64597;SDS011;51004;54.692;9.332;2022-11-25T20:56:18;37.63;;;20.65;;
64597;SDS011;51004;54.692;9.332;2022-11-25T20:58:44;39.90;;;17.70;;
64597;SDS011;51004;54.692;9.332;2022-11-25T21:01:10;38.00;;;19.33;;
64597;SDS011;51004;54.692;9.332;2022-11-25T21:03:38;36.50;;;17.17;;
64597;SDS011;51004;54.692;9.332;2022-11-25T21:06:11;32.40;;;16.85;;
64597;SDS011;51004;54.692;9.332;2022-11-25T21:08:37;39.60;;;15.98;;
64597;SDS011;51004;54.692;9.332;2022-11-25T21:11:03;29.70;;;15.23;;
64597;SDS011;51004;54.692;9.332;2022-11-25T21:13:29;22.58;;;14.70;;
64597;SDS011;51004;54.692;9.332;2022-11-25T21:15:55;25.25;;;14.68;;
64597;SDS011;51004;54.692;9.332;2022-11-25T21:18:22;25.77;;;14.05;;
64597;SDS011;51004;54.692;9.332;2022-11-25T21:20:48;62.75;;;14.43;;
64597;SDS011;51004;54.692;9.332;2022-11-25T21:23:22;40.05;;;14.05;;
64597;SDS011;51004;54.692;9.332;2022-11-25T21:28:21;69.32;;;13.50;;
64597;SDS011;51004;54.692;9.332;2022-11-25T21:30:48;100.43;;;14.63;;
64597;SDS011;51004;54.692;9.332;2022-11-25T21:33:14;35.33;;;13.45;;
64597;SDS011;51004;54.692;9.332;2022-11-25T21:35:43;75.10;;;12.23;;
64597;SDS011;51004;54.692;9.332;2022-11-25T21:38:23;96.75;;;14.05;;
64597;SDS011;51004;54.692;9.332;2022-11-25T21:40:53;128.93;;;13.00;;
64597;SDS011;51004;54.692;9.332;2022-11-25T21:43:31;117.93;;;12.05;;
64597;SDS011;51004;54.692;9.332;2022-11-25T21:46:01;52.13;;;10.15;;
64597;SDS011;51004;54.692;9.332;2022-11-25T21:48:27;29.33;;;9.30;;
64597;SDS011;51004;54.692;9.332;2022-11-25T21:50:56;32.20;;;8.65;;
64597;SDS011;51004;54.692;9.332;2022-11-25T21:53:23;28.83;;;8.05;;
64597;SDS011;51004;54.692;9.332;2022-11-25T21:55:49;36.88;;;8.48;;
64597;SDS011;51004;54.692;9.332;2022-11-25T21:58:19;26.85;;;7.43;;
64597;SDS011;51004;54.692;9.332;2022-11-25T22:00:47;79.82;;;15.20;;
64597;SDS011;51004;54.692;9.332;2022-11-25T22:03:15;32.38;;;8.00;;
64597;SDS011;51004;54.692;9.332;2022-11-25T22:05:41;55.10;;;9.65;;
64597;SDS011;51004;54.692;9.332;2022-11-25T22:08:07;27.17;;;8.32;;
64597;SDS011;51004;54.692;9.332;2022-11-25T22:10:33;36.97;;;8.20;;
64597;SDS011;51004;54.692;9.332;2022-11-25T22:12:59;24.73;;;7.47;;
64597;SDS011;51004;54.692;9.332;2022-11-25T22:15:26;64.03;;;7.15;;
64597;SDS011;51004;54.692;9.332;2022-11-25T22:17:53;37.13;;;6.53;;
64597;SDS011;51004;54.692;9.332;2022-11-25T22:20:30;17.63;;;6.20;;
64597;SDS011;51004;54.692;9.332;2022-11-25T22:23:00;37.38;;;6.50;;
64597;SDS011;51004;54.692;9.332;2022-11-25T22:25:27;65.32;;;7.53;;
64597;SDS011;51004;54.692;9.332;2022-11-25T22:27:53;30.10;;;5.88;;
64597;SDS011;51004;54.692;9.332;2022-11-25T22:30:20;14.90;;;5.70;;
64597;SDS011;51004;54.692;9.332;2022-11-25T22:32:47;10.05;;;5.28;;
64597;SDS011;51004;54.692;9.332;2022-11-25T22:37:40;8.70;;;5.28;;
64597;SDS011;51004;54.692;9.332;2022-11-25T22:40:06;7.25;;;5.28;;
64597;SDS011;51004;54.692;9.332;2022-11-25T22:42:32;21.25;;;6.07;;
64597;SDS011;51004;54.692;9.332;2022-11-25T22:44:59;23.83;;;5.47;;
64597;SDS011;51004;54.692;9.332;2022-11-25T22:47:27;25.50;;;6.38;;
64597;SDS011;51004;54.692;9.332;2022-11-25T22:49:55;19.70;;;6.05;;
64597;SDS011;51004;54.692;9.332;2022-11-25T22:52:25;10.93;;;5.25;;
64597;SDS011;51004;54.692;9.332;2022-11-25T22:54:52;42.80;;;6.38;;
64597;SDS011;51004;54.692;9.332;2022-11-25T22:57:18;62.45;;;7.15;;
64597;SDS011;51004;54.692;9.332;2022-11-25T22:59:44;72.28;;;7.85;;
64597;SDS011;51004;54.692;9.332;2022-11-25T23:02:14;57.05;;;7.45;;
64597;SDS011;51004;54.692;9.332;2022-11-25T23:04:42;51.17;;;6.78;;
64597;SDS011;51004;54.692;9.332;2022-11-25T23:07:12;24.58;;;5.57;;
64597;SDS011;51004;54.692;9.332;2022-11-25T23:09:38;21.20;;;6.07;;
64597;SDS011;51004;54.692;9.332;2022-11-25T23:12:04;42.28;;;7.18;;
64597;SDS011;51004;54.692;9.332;2022-11-25T23:14:30;35.03;;;6.95;;
64597;SDS011;51004;54.692;9.332;2022-11-25T23:16:55;31.27;;;6.70;;
64597;SDS011;51004;54.692;9.332;2022-11-25T23:19:21;46.38;;;7.15;;
64597;SDS011;51004;54.692;9.332;2022-11-25T23:21:47;51.28;;;7.85;;
64597;SDS011;51004;54.692;9.332;2022-11-25T23:24:14;52.33;;;7.50;;
64597;SDS011;51004;54.692;9.332;2022-11-25T23:26:40;44.40;;;7.05;;
64597;SDS011;51004;54.692;9.332;2022-11-25T23:29:06;23.58;;;6.72;;
64597;SDS011;51004;54.692;9.332;2022-11-25T23:31:36;17.85;;;6.57;;
64597;SDS011;51004;54.692;9.332;2022-11-25T23:34:02;11.48;;;6.55;;
64597;SDS011;51004;54.692;9.332;2022-11-25T23:36:30;14.15;;;6.55;;
64597;SDS011;51004;54.692;9.332;2022-11-25T23:39:00;20.13;;;6.60;;
64597;SDS011;51004;54.692;9.332;2022-11-25T23:41:28;15.13;;;6.45;;
64597;SDS011;51004;54.692;9.332;2022-11-25T23:43:54;22.15;;;6.40;;
64597;SDS011;51004;54.692;9.332;2022-11-25T23:46:25;33.63;;;7.15;;
64597;SDS011;51004;54.692;9.332;2022-11-25T23:48:53;57.08;;;7.65;;
64597;SDS011;51004;54.692;9.332;2022-11-25T23:51:21;30.42;;;6.72;;
64597;SDS011;51004;54.692;9.332;2022-11-25T23:53:47;25.73;;;7.63;;
64597;SDS011;51004;54.692;9.332;2022-11-25T23:56:13;42.15;;;7.22;;
64597;SDS011;51004;54.692;9.332;2022-11-25T23:58:39;37.72;;;8.05;;
